sensor_id;sensor_type;location;lat;lon;timestamp;temperature;humidity
59923;DHT22;45778;51.142;3.732;2023-03-03T00:02:19;3.50;99.90
59923;DHT22;45778;51.142;3.732;2023-03-03T00:04:45;3.60;99.90
59923;DHT22;45778;51.142;3.732;2023-03-03T00:07:11;3.50;99.90
59923;DHT22;45778;51.142;3.732;2023-03-03T00:09:37;3.40;99.90
59923;DHT22;45778;51.142;3.732;2023-03-03T00:12:27;3.50;99.90
59923;DHT22;45778;51.142;3.732;2023-03-03T00:14:53;3.40;99.90
59923;DHT22;45778;51.142;3.732;2023-03-03T00:17:27;3.40;99.90
59923;DHT22;45778;51.142;3.732;2023-03-03T00:19:54;3.50;99.90
59923;DHT22;45778;51.142;3.732;2023-03-03T00:22:30;3.40;99.90
59923;DHT22;45778;51.142;3.732;2023-03-03T00:27:50;3.40;99.90
59923;DHT22;45778;51.142;3.732;2023-03-03T00:30:21;3.40;99.90
59923;DHT22;45778;51.142;3.732;2023-03-03T00:32:48;3.30;99.90
59923;DHT22;45778;51.142;3.732;2023-03-03T00:35:31;3.20;99.90
59923;DHT22;45778;51.142;3.732;2023-03-03T00:38:01;3.20;99.90
59923;DHT22;45778;51.142;3.732;2023-03-03T00:40:36;3.20;99.90
59923;DHT22;45778;51.142;3.732;2023-03-03T00:43:22;3.20;99.90
59923;DHT22;45778;51.142;3.732;2023-03-03T00:45:53;3.20;99.90
59923;DHT22;45778;51.142;3.732;2023-03-03T00:48:24;3.20;99.90
59923;DHT22;45778;51.142;3.732;2023-03-03T00:50:52;3.00;99.90
59923;DHT22;45778;51.142;3.732;2023-03-03T00:53:19;3.20;99.90
59923;DHT22;45778;51.142;3.732;2023-03-03T00:55:47;3.20;99.90
59923;DHT22;45778;51.142;3.732;2023-03-03T00:58:13;3.10;99.90
59923;DHT22;45778;51.142;3.732;2023-03-03T01:00:40;3.20;99.90
59923;DHT22;45778;51.142;3.732;2023-03-03T01:03:08;3.30;99.90
59923;DHT22;45778;51.142;3.732;2023-03-03T01:05:34;3.20;99.90
59923;DHT22;45778;51.142;3.732;2023-03-03T01:08:01;3.20;99.90
59923;DHT22;45778;51.142;3.732;2023-03-03T01:10:30;3.10;99.90
59923;DHT22;45778;51.142;3.732;2023-03-03T01:12:56;3.10;99.90
59923;DHT22;45778;51.142;3.732;2023-03-03T01:15:23;3.10;99.90
59923;DHT22;45778;51.142;3.732;2023-03-03T01:17:49;3.10;99.90
59923;DHT22;45778;51.142;3.732;2023-03-03T01:20:16;3.20;99.90
59923;DHT22;45778;51.142;3.732;2023-03-03T01:22:42;3.20;99.90
59923;DHT22;45778;51.142;3.732;2023-03-03T01:25:08;3.30;99.90
59923;DHT22;45778;51.142;3.732;2023-03-03T01:27:35;3.20;99.90
59923;DHT22;45778;51.142;3.732;2023-03-03T01:30:02;3.10;99.90
59923;DHT22;45778;51.142;3.732;2023-03-03T01:32:28;3.30;99.90
59923;DHT22;45778;51.142;3.732;2023-03-03T01:34:54;3.30;99.90
59923;DHT22;45778;51.142;3.732;2023-03-03T01:37:20;3.50;99.90
59923;DHT22;45778;51.142;3.732;2023-03-03T01:39:53;3.40;99.90
59923;DHT22;45778;51.142;3.732;2023-03-03T01:42:19;3.40;99.90
59923;DHT22;45778;51.142;3.732;2023-03-03T01:44:44;3.20;99.90
59923;DHT22;45778;51.142;3.732;2023-03-03T01:47:21;3.20;99.90
59923;DHT22;45778;51.142;3.732;2023-03-03T01:50:01;3.10;99.90
59923;DHT22;45778;51.142;3.732;2023-03-03T01:52:41;3.10;99.90
59923;DHT22;45778;51.142;3.732;2023-03-03T01:55:13;3.10;99.90
59923;DHT22;45778;51.142;3.732;2023-03-03T01:57:44;3.00;99.90
59923;DHT22;45778;51.142;3.732;2023-03-03T02:00:11;2.90;99.90
59923;DHT22;45778;51.142;3.732;2023-03-03T02:02:37;3.00;99.90
59923;DHT22;45778;51.142;3.732;2023-03-03T02:05:04;2.90;99.90
59923;DHT22;45778;51.142;3.732;2023-03-03T02:07:30;2.90;99.90
59923;DHT22;45778;51.142;3.732;2023-03-03T02:10:17;2.80;99.90
59923;DHT22;45778;51.142;3.732;2023-03-03T02:12:53;2.90;99.90
59923;DHT22;45778;51.142;3.732;2023-03-03T02:15:22;3.00;99.90
59923;DHT22;45778;51.142;3.732;2023-03-03T02:17:51;3.10;99.90
59923;DHT22;45778;51.142;3.732;2023-03-03T02:28:25;3.10;99.90
59923;DHT22;45778;51.142;3.732;2023-03-03T02:30:56;2.90;99.90
59923;DHT22;45778;51.142;3.732;2023-03-03T02:33:22;2.80;99.90
59923;DHT22;45778;51.142;3.732;2023-03-03T02:35:49;2.70;99.90
59923;DHT22;45778;51.142;3.732;2023-03-03T02:38:23;2.50;99.90
59923;DHT22;45778;51.142;3.732;2023-03-03T02:44:08;2.60;99.90
59923;DHT22;45778;51.142;3.732;2023-03-03T02:46:40;2.40;99.90
59923;DHT22;45778;51.142;3.732;2023-03-03T02:49:07;2.50;99.90
59923;DHT22;45778;51.142;3.732;2023-03-03T02:51:34;2.50;99.90
59923;DHT22;45778;51.142;3.732;2023-03-03T02:54:00;2.60;99.90
59923;DHT22;45778;51.142;3.732;2023-03-03T02:56:26;2.50;99.90
59923;DHT22;45778;51.142;3.732;2023-03-03T02:58:52;2.60;99.90
59923;DHT22;45778;51.142;3.732;2023-03-03T03:01:18;2.50;99.90
59923;DHT22;45778;51.142;3.732;2023-03-03T03:03:44;2.50;99.90
59923;DHT22;45778;51.142;3.732;2023-03-03T03:06:10;2.50;99.90
59923;DHT22;45778;51.142;3.732;2023-03-03T03:08:36;2.50;99.90
59923;DHT22;45778;51.142;3.732;2023-03-03T03:11:03;2.40;99.90
59923;DHT22;45778;51.142;3.732;2023-03-03T03:13:31;2.20;99.90
59923;DHT22;45778;51.142;3.732;2023-03-03T03:15:58;2.30;99.90
59923;DHT22;45778;51.142;3.732;2023-03-03T03:18:24;2.30;99.90
59923;DHT22;45778;51.142;3.732;2023-03-03T03:20:50;2.30;99.90
59923;DHT22;45778;51.142;3.732;2023-03-03T03:23:16;2.40;99.90
59923;DHT22;45778;51.142;3.732;2023-03-03T03:25:42;2.50;99.90
59923;DHT22;45778;51.142;3.732;2023-03-03T03:28:15;2.30;99.90
59923;DHT22;45778;51.142;3.732;2023-03-03T03:30:42;2.10;99.90
59923;DHT22;45778;51.142;3.732;2023-03-03T03:33:10;2.20;99.90
59923;DHT22;45778;51.142;3.732;2023-03-03T03:35:36;2.00;99.90
59923;DHT22;45778;51.142;3.732;2023-03-03T03:38:02;2.10;99.90
59923;DHT22;45778;51.142;3.732;2023-03-03T03:40:28;1.90;99.90
59923;DHT22;45778;51.142;3.732;2023-03-03T03:42:54;2.00;99.90
59923;DHT22;45778;51.142;3.732;2023-03-03T03:45:20;2.00;99.90
59923;DHT22;45778;51.142;3.732;2023-03-03T03:47:46;2.00;99.90
59923;DHT22;45778;51.142;3.732;2023-03-03T03:50:12;2.00;99.90
59923;DHT22;45778;51.142;3.732;2023-03-03T03:52:38;2.00;99.90
59923;DHT22;45778;51.142;3.732;2023-03-03T03:55:04;2.00;99.90
59923;DHT22;45778;51.142;3.732;2023-03-03T03:57:30;1.90;99.90
59923;DHT22;45778;51.142;3.732;2023-03-03T03:59:56;1.80;99.90
59923;DHT22;45778;51.142;3.732;2023-03-03T04:02:22;1.80;99.90
59923;DHT22;45778;51.142;3.732;2023-03-03T04:04:47;1.80;99.90
59923;DHT22;45778;51.142;3.732;2023-03-03T04:07:13;1.80;99.90
59923;DHT22;45778;51.142;3.732;2023-03-03T04:09:38;1.80;99.90
59923;DHT22;45778;51.142;3.732;2023-03-03T04:12:04;1.90;99.90
59923;DHT22;45778;51.142;3.732;2023-03-03T04:14:30;1.90;99.90
59923;DHT22;45778;51.142;3.732;2023-03-03T04:16:56;1.90;99.90
59923;DHT22;45778;51.142;3.732;2023-03-03T04:19:22;1.90;99.90
59923;DHT22;45778;51.142;3.732;2023-03-03T04:21:47;1.80;99.90
59923;DHT22;45778;51.142;3.732;2023-03-03T04:24:13;1.80;99.90
59923;DHT22;45778;51.142;3.732;2023-03-03T04:26:39;1.70;99.90
59923;DHT22;45778;51.142;3.732;2023-03-03T04:29:04;1.70;99.90
59923;DHT22;45778;51.142;3.732;2023-03-03T04:31:30;1.70;99.90
59923;DHT22;45778;51.142;3.732;2023-03-03T04:33:56;2.20;99.90
59923;DHT22;45778;51.142;3.732;2023-03-03T04:36:22;1.80;99.90
59923;DHT22;45778;51.142;3.732;2023-03-03T04:38:48;1.90;99.90
59923;DHT22;45778;51.142;3.732;2023-03-03T04:41:14;2.00;99.90
59923;DHT22;45778;51.142;3.732;2023-03-03T04:43:40;1.90;99.90
59923;DHT22;45778;51.142;3.732;2023-03-03T04:46:06;2.00;99.90
59923;DHT22;45778;51.142;3.732;2023-03-03T04:48:32;2.00;99.90
59923;DHT22;45778;51.142;3.732;2023-03-03T04:50:57;2.00;99.90
59923;DHT22;45778;51.142;3.732;2023-03-03T04:53:23;2.10;99.90
59923;DHT22;45778;51.142;3.732;2023-03-03T04:55:50;2.00;99.90
59923;DHT22;45778;51.142;3.732;2023-03-03T04:58:16;2.10;99.90
59923;DHT22;45778;51.142;3.732;2023-03-03T05:00:44;2.20;99.90
59923;DHT22;45778;51.142;3.732;2023-03-03T05:03:11;2.10;99.90
59923;DHT22;45778;51.142;3.732;2023-03-03T05:05:37;2.00;99.90
59923;DHT22;45778;51.142;3.732;2023-03-03T05:08:03;2.10;99.90
59923;DHT22;45778;51.142;3.732;2023-03-03T05:10:29;2.20;99.90
59923;DHT22;45778;51.142;3.732;2023-03-03T05:12:55;2.20;99.90
59923;DHT22;45778;51.142;3.732;2023-03-03T05:15:20;2.10;99.90
59923;DHT22;45778;51.142;3.732;2023-03-03T05:17:46;2.10;99.90
59923;DHT22;45778;51.142;3.732;2023-03-03T05:20:12;2.10;99.90
59923;DHT22;45778;51.142;3.732;2023-03-03T05:22:38;2.10;99.90
59923;DHT22;45778;51.142;3.732;2023-03-03T05:25:04;2.10;99.90
59923;DHT22;45778;51.142;3.732;2023-03-03T05:27:30;2.30;99.90
59923;DHT22;45778;51.142;3.732;2023-03-03T05:29:56;2.30;99.90
59923;DHT22;45778;51.142;3.732;2023-03-03T05:32:22;2.30;99.90
59923;DHT22;45778;51.142;3.732;2023-03-03T05:34:47;2.20;99.90
59923;DHT22;45778;51.142;3.732;2023-03-03T05:37:13;2.30;99.90
59923;DHT22;45778;51.142;3.732;2023-03-03T05:39:40;2.50;99.90
59923;DHT22;45778;51.142;3.732;2023-03-03T05:42:05;2.30;99.90
59923;DHT22;45778;51.142;3.732;2023-03-03T05:44:31;2.20;99.90
59923;DHT22;45778;51.142;3.732;2023-03-03T05:46:57;2.20;99.90
59923;DHT22;45778;51.142;3.732;2023-03-03T05:49:24;2.20;99.90
59923;DHT22;45778;51.142;3.732;2023-03-03T05:51:50;2.20;99.90
59923;DHT22;45778;51.142;3.732;2023-03-03T05:54:16;2.10;99.90
59923;DHT22;45778;51.142;3.732;2023-03-03T05:56:41;2.20;99.90
59923;DHT22;45778;51.142;3.732;2023-03-03T05:59:07;2.10;99.90
59923;DHT22;45778;51.142;3.732;2023-03-03T06:01:33;2.30;99.90
59923;DHT22;45778;51.142;3.732;2023-03-03T06:03:58;2.50;99.90
59923;DHT22;45778;51.142;3.732;2023-03-03T06:06:24;2.40;99.90
59923;DHT22;45778;51.142;3.732;2023-03-03T06:08:50;2.50;99.90
59923;DHT22;45778;51.142;3.732;2023-03-03T06:11:18;2.40;99.90
59923;DHT22;45778;51.142;3.732;2023-03-03T06:13:44;2.80;99.90
59923;DHT22;45778;51.142;3.732;2023-03-03T06:16:09;2.80;99.90
59923;DHT22;45778;51.142;3.732;2023-03-03T06:18:36;2.50;99.90
59923;DHT22;45778;51.142;3.732;2023-03-03T06:21:02;2.60;99.90
59923;DHT22;45778;51.142;3.732;2023-03-03T06:23:27;2.60;99.90
59923;DHT22;45778;51.142;3.732;2023-03-03T06:25:53;2.70;99.90
59923;DHT22;45778;51.142;3.732;2023-03-03T06:28:19;2.70;99.90
59923;DHT22;45778;51.142;3.732;2023-03-03T06:30:44;2.70;99.90
59923;DHT22;45778;51.142;3.732;2023-03-03T06:33:10;2.80;99.90
59923;DHT22;45778;51.142;3.732;2023-03-03T06:35:36;2.80;99.90
59923;DHT22;45778;51.142;3.732;2023-03-03T06:38:02;2.80;99.90
59923;DHT22;45778;51.142;3.732;2023-03-03T06:40:28;3.10;99.90
59923;DHT22;45778;51.142;3.732;2023-03-03T06:42:53;3.00;99.90
59923;DHT22;45778;51.142;3.732;2023-03-03T06:45:19;2.50;99.90
59923;DHT22;45778;51.142;3.732;2023-03-03T06:47:45;2.50;99.90
59923;DHT22;45778;51.142;3.732;2023-03-03T06:50:11;2.40;99.90
59923;DHT22;45778;51.142;3.732;2023-03-03T06:52:37;2.40;99.90
59923;DHT22;45778;51.142;3.732;2023-03-03T06:55:12;2.40;99.90
59923;DHT22;45778;51.142;3.732;2023-03-03T06:57:38;2.40;99.90
59923;DHT22;45778;51.142;3.732;2023-03-03T07:00:17;2.60;99.90
59923;DHT22;45778;51.142;3.732;2023-03-03T07:02:45;2.50;99.90
59923;DHT22;45778;51.142;3.732;2023-03-03T07:05:16;2.60;99.90
59923;DHT22;45778;51.142;3.732;2023-03-03T07:07:43;2.80;99.90
59923;DHT22;45778;51.142;3.732;2023-03-03T07:10:19;2.80;99.90
59923;DHT22;45778;51.142;3.732;2023-03-03T07:12:46;2.80;99.90
59923;DHT22;45778;51.142;3.732;2023-03-03T07:15:18;2.70;99.90
59923;DHT22;45778;51.142;3.732;2023-03-03T07:17:49;2.80;99.90
59923;DHT22;45778;51.142;3.732;2023-03-03T07:20:20;2.80;99.90
59923;DHT22;45778;51.142;3.732;2023-03-03T07:22:46;2.80;99.90
59923;DHT22;45778;51.142;3.732;2023-03-03T07:25:26;2.90;99.90
59923;DHT22;45778;51.142;3.732;2023-03-03T07:28:07;3.00;99.90
59923;DHT22;45778;51.142;3.732;2023-03-03T07:30:35;3.00;99.90
59923;DHT22;45778;51.142;3.732;2023-03-03T07:33:01;2.80;99.90
59923;DHT22;45778;51.142;3.732;2023-03-03T07:35:37;2.90;99.90
59923;DHT22;45778;51.142;3.732;2023-03-03T07:40:59;3.00;99.90
59923;DHT22;45778;51.142;3.732;2023-03-03T07:48:37;3.10;99.90
59923;DHT22;45778;51.142;3.732;2023-03-03T07:53:38;3.10;99.90
59923;DHT22;45778;51.142;3.732;2023-03-03T07:56:14;3.40;99.90
59923;DHT22;45778;51.142;3.732;2023-03-03T07:58:42;3.30;99.90
59923;DHT22;45778;51.142;3.732;2023-03-03T08:04:27;3.30;99.90
59923;DHT22;45778;51.142;3.732;2023-03-03T08:06:56;3.30;99.90
59923;DHT22;45778;51.142;3.732;2023-03-03T08:09:37;3.30;99.90
59923;DHT22;45778;51.142;3.732;2023-03-03T08:14:37;3.30;99.90
59923;DHT22;45778;51.142;3.732;2023-03-03T08:17:22;3.40;99.90
59923;DHT22;45778;51.142;3.732;2023-03-03T08:19:50;3.50;99.90
59923;DHT22;45778;51.142;3.732;2023-03-03T08:22:37;3.60;99.90
59923;DHT22;45778;51.142;3.732;2023-03-03T08:25:03;3.50;99.90
59923;DHT22;45778;51.142;3.732;2023-03-03T08:27:29;3.60;99.90
59923;DHT22;45778;51.142;3.732;2023-03-03T08:29:55;3.80;99.90
59923;DHT22;45778;51.142;3.732;2023-03-03T08:32:20;3.90;99.90
59923;DHT22;45778;51.142;3.732;2023-03-03T08:34:46;4.10;99.90
59923;DHT22;45778;51.142;3.732;2023-03-03T08:37:12;4.00;99.90
59923;DHT22;45778;51.142;3.732;2023-03-03T08:39:37;4.00;99.90
59923;DHT22;45778;51.142;3.732;2023-03-03T08:42:03;3.90;99.90
59923;DHT22;45778;51.142;3.732;2023-03-03T08:44:29;4.00;99.90
59923;DHT22;45778;51.142;3.732;2023-03-03T08:46:55;4.10;99.90
59923;DHT22;45778;51.142;3.732;2023-03-03T08:49:20;4.30;99.90
59923;DHT22;45778;51.142;3.732;2023-03-03T08:51:46;4.50;99.90
59923;DHT22;45778;51.142;3.732;2023-03-03T08:54:12;4.50;99.90
59923;DHT22;45778;51.142;3.732;2023-03-03T08:56:38;4.50;99.90
59923;DHT22;45778;51.142;3.732;2023-03-03T08:59:03;4.50;99.90
59923;DHT22;45778;51.142;3.732;2023-03-03T09:01:30;4.60;99.90
59923;DHT22;45778;51.142;3.732;2023-03-03T09:03:56;4.70;99.90
59923;DHT22;45778;51.142;3.732;2023-03-03T09:06:22;4.70;99.90
59923;DHT22;45778;51.142;3.732;2023-03-03T09:08:47;4.70;99.90
59923;DHT22;45778;51.142;3.732;2023-03-03T09:11:14;4.90;99.90
59923;DHT22;45778;51.142;3.732;2023-03-03T09:13:44;4.80;99.90
59923;DHT22;45778;51.142;3.732;2023-03-03T09:16:14;4.90;99.90
59923;DHT22;45778;51.142;3.732;2023-03-03T09:18:40;5.00;99.90
59923;DHT22;45778;51.142;3.732;2023-03-03T09:21:36;5.10;99.90
59923;DHT22;45778;51.142;3.732;2023-03-03T09:24:01;5.20;99.90
59923;DHT22;45778;51.142;3.732;2023-03-03T09:26:43;5.20;99.90
59923;DHT22;45778;51.142;3.732;2023-03-03T09:29:30;5.40;99.90
59923;DHT22;45778;51.142;3.732;2023-03-03T09:32:20;5.40;99.90
59923;DHT22;45778;51.142;3.732;2023-03-03T09:34:47;5.30;99.90
59923;DHT22;45778;51.142;3.732;2023-03-03T09:39:38;5.50;99.90
59923;DHT22;45778;51.142;3.732;2023-03-03T09:50:25;5.60;99.90
59923;DHT22;45778;51.142;3.732;2023-03-03T09:53:15;5.60;99.90
59923;DHT22;45778;51.142;3.732;2023-03-03T09:55:49;5.60;99.90
59923;DHT22;45778;51.142;3.732;2023-03-03T10:01:33;5.80;99.90
59923;DHT22;45778;51.142;3.732;2023-03-03T10:23:51;6.20;99.90
59923;DHT22;45778;51.142;3.732;2023-03-03T10:43:30;6.60;99.90
59923;DHT22;45778;51.142;3.732;2023-03-03T10:53:58;7.20;99.90
59923;DHT22;45778;51.142;3.732;2023-03-03T11:01:58;7.40;99.90
59923;DHT22;45778;51.142;3.732;2023-03-03T11:07:18;7.30;99.90
59923;DHT22;45778;51.142;3.732;2023-03-03T11:20:37;7.70;99.90
59923;DHT22;45778;51.142;3.732;2023-03-03T11:23:31;7.70;99.90
59923;DHT22;45778;51.142;3.732;2023-03-03T11:29:08;7.50;99.90
59923;DHT22;45778;51.142;3.732;2023-03-03T11:37:10;8.20;99.90
59923;DHT22;45778;51.142;3.732;2023-03-03T11:39:39;8.60;99.90
59923;DHT22;45778;51.142;3.732;2023-03-03T11:44:49;9.40;99.90
59923;DHT22;45778;51.142;3.732;2023-03-03T11:55:35;9.30;99.90
59923;DHT22;45778;51.142;3.732;2023-03-03T12:09:11;9.30;99.90
59923;DHT22;45778;51.142;3.732;2023-03-03T12:20:17;10.10;99.90
59923;DHT22;45778;51.142;3.732;2023-03-03T12:29:00;11.70;99.90
59923;DHT22;45778;51.142;3.732;2023-03-03T12:34:45;11.70;99.90
59923;DHT22;45778;51.142;3.732;2023-03-03T12:40:09;13.60;98.30
59923;DHT22;45778;51.142;3.732;2023-03-03T12:43:05;15.10;94.70
59923;DHT22;45778;51.142;3.732;2023-03-03T12:46:33;14.00;95.50
59923;DHT22;45778;51.142;3.732;2023-03-03T12:48:39;13.50;96.00
59923;DHT22;45778;51.142;3.732;2023-03-03T13:10:04;16.50;92.10
59923;DHT22;45778;51.142;3.732;2023-03-03T13:15:26;18.50;83.60
59923;DHT22;45778;51.142;3.732;2023-03-03T13:20:59;19.40;77.10
59923;DHT22;45778;51.142;3.732;2023-03-03T13:27:06;20.00;74.00
59923;DHT22;45778;51.142;3.732;2023-03-03T13:29:39;20.60;70.60
59923;DHT22;45778;51.142;3.732;2023-03-03T13:32:21;20.10;69.80
59923;DHT22;45778;51.142;3.732;2023-03-03T13:35:04;19.20;70.60
59923;DHT22;45778;51.142;3.732;2023-03-03T13:40:05;19.10;71.50
59923;DHT22;45778;51.142;3.732;2023-03-03T13:46:03;20.30;69.60
59923;DHT22;45778;51.142;3.732;2023-03-03T14:05:40;18.90;68.90
59923;DHT22;45778;51.142;3.732;2023-03-03T14:16:51;23.20;61.10
59923;DHT22;45778;51.142;3.732;2023-03-03T14:19:26;22.60;59.80
59923;DHT22;45778;51.142;3.732;2023-03-03T14:22:17;20.30;62.70
59923;DHT22;45778;51.142;3.732;2023-03-03T14:27:25;19.90;65.30
59923;DHT22;45778;51.142;3.732;2023-03-03T14:29:51;20.40;63.30
59923;DHT22;45778;51.142;3.732;2023-03-03T14:32:26;19.90;64.00
59923;DHT22;45778;51.142;3.732;2023-03-03T14:34:57;18.40;66.00
59923;DHT22;45778;51.142;3.732;2023-03-03T14:37:28;17.40;68.20
59923;DHT22;45778;51.142;3.732;2023-03-03T14:40:19;16.80;69.60
59923;DHT22;45778;51.142;3.732;2023-03-03T14:45:28;19.70;66.50
59923;DHT22;45778;51.142;3.732;2023-03-03T14:47:56;20.60;63.90
59923;DHT22;45778;51.142;3.732;2023-03-03T14:50:38;20.00;63.20
59923;DHT22;45778;51.142;3.732;2023-03-03T14:53:19;18.90;64.20
59923;DHT22;45778;51.142;3.732;2023-03-03T14:55:49;17.70;66.80
59923;DHT22;45778;51.142;3.732;2023-03-03T14:58:37;17.70;68.00
59923;DHT22;45778;51.142;3.732;2023-03-03T15:01:29;16.50;69.10
59923;DHT22;45778;51.142;3.732;2023-03-03T15:04:07;15.40;71.70
59923;DHT22;45778;51.142;3.732;2023-03-03T15:15:07;17.80;68.00
59923;DHT22;45778;51.142;3.732;2023-03-03T15:17:56;17.20;69.40
59923;DHT22;45778;51.142;3.732;2023-03-03T15:29:03;13.20;77.60
59923;DHT22;45778;51.142;3.732;2023-03-03T15:42:36;12.80;81.40
59923;DHT22;45778;51.142;3.732;2023-03-03T15:45:30;13.00;81.90
59923;DHT22;45778;51.142;3.732;2023-03-03T16:04:35;12.30;81.80
59923;DHT22;45778;51.142;3.732;2023-03-03T16:07:06;11.70;84.20
59923;DHT22;45778;51.142;3.732;2023-03-03T16:16:05;10.20;90.50
59923;DHT22;45778;51.142;3.732;2023-03-03T16:23:51;9.80;94.70
59923;DHT22;45778;51.142;3.732;2023-03-03T16:26:35;9.80;94.00
59923;DHT22;45778;51.142;3.732;2023-03-03T16:29:37;9.50;95.10
59923;DHT22;45778;51.142;3.732;2023-03-03T16:32:20;9.50;96.10
59923;DHT22;45778;51.142;3.732;2023-03-03T16:37:50;9.30;96.70
59923;DHT22;45778;51.142;3.732;2023-03-03T16:40:38;9.00;98.50
59923;DHT22;45778;51.142;3.732;2023-03-03T16:45:38;8.30;99.90
59923;DHT22;45778;51.142;3.732;2023-03-03T16:48:44;8.20;99.90
59923;DHT22;45778;51.142;3.732;2023-03-03T16:54:10;7.90;99.90
59923;DHT22;45778;51.142;3.732;2023-03-03T16:56:47;8.10;99.90
59923;DHT22;45778;51.142;3.732;2023-03-03T17:02:37;7.80;99.90
59923;DHT22;45778;51.142;3.732;2023-03-03T17:07:43;7.90;99.90
59923;DHT22;45778;51.142;3.732;2023-03-03T17:18:23;7.70;99.90
59923;DHT22;45778;51.142;3.732;2023-03-03T17:20:57;7.60;99.90
59923;DHT22;45778;51.142;3.732;2023-03-03T17:26:32;7.50;99.90
59923;DHT22;45778;51.142;3.732;2023-03-03T17:37:36;8.00;99.90
59923;DHT22;45778;51.142;3.732;2023-03-03T17:45:17;7.40;99.90
59923;DHT22;45778;51.142;3.732;2023-03-03T17:58:36;7.50;99.90
59923;DHT22;45778;51.142;3.732;2023-03-03T18:09:13;7.20;99.90
59923;DHT22;45778;51.142;3.732;2023-03-03T18:11:56;7.20;99.90
59923;DHT22;45778;51.142;3.732;2023-03-03T18:22:48;7.20;99.90
59923;DHT22;45778;51.142;3.732;2023-03-03T18:25:18;7.10;99.90
59923;DHT22;45778;51.142;3.732;2023-03-03T18:27:46;7.10;99.90
59923;DHT22;45778;51.142;3.732;2023-03-03T18:30:25;7.10;99.90
59923;DHT22;45778;51.142;3.732;2023-03-03T18:35:33;6.80;99.90
59923;DHT22;45778;51.142;3.732;2023-03-03T18:41:04;6.80;99.90
59923;DHT22;45778;51.142;3.732;2023-03-03T18:49:11;6.40;99.90
59923;DHT22;45778;51.142;3.732;2023-03-03T19:04:52;6.60;99.90
59923;DHT22;45778;51.142;3.732;2023-03-03T19:07:28;6.60;99.90
59923;DHT22;45778;51.142;3.732;2023-03-03T19:09:59;6.60;99.90
59923;DHT22;45778;51.142;3.732;2023-03-03T19:18:00;6.80;99.90
59923;DHT22;45778;51.142;3.732;2023-03-03T19:20:38;6.80;99.90
59923;DHT22;45778;51.142;3.732;2023-03-03T19:23:09;6.70;99.90
59923;DHT22;45778;51.142;3.732;2023-03-03T19:25:36;6.70;99.90
59923;DHT22;45778;51.142;3.732;2023-03-03T19:30:50;6.90;99.90
59923;DHT22;45778;51.142;3.732;2023-03-03T19:39:11;7.00;99.90
59923;DHT22;45778;51.142;3.732;2023-03-03T19:44:25;7.00;99.90
59923;DHT22;45778;51.142;3.732;2023-03-03T19:50:12;7.00;99.90
59923;DHT22;45778;51.142;3.732;2023-03-03T20:01:17;6.90;99.90
59923;DHT22;45778;51.142;3.732;2023-03-03T20:03:53;6.90;99.90
59923;DHT22;45778;51.142;3.732;2023-03-03T20:06:41;6.90;99.90
59923;DHT22;45778;51.142;3.732;2023-03-03T20:09:25;6.90;99.90
59923;DHT22;45778;51.142;3.732;2023-03-03T20:20:11;7.00;99.90
59923;DHT22;45778;51.142;3.732;2023-03-03T20:22:43;7.10;99.90
59923;DHT22;45778;51.142;3.732;2023-03-03T20:39:08;7.00;99.90
59923;DHT22;45778;51.142;3.732;2023-03-03T20:45:17;7.00;99.90
59923;DHT22;45778;51.142;3.732;2023-03-03T20:48:08;6.90;99.90
59923;DHT22;45778;51.142;3.732;2023-03-03T20:51:08;7.10;99.90
59923;DHT22;45778;51.142;3.732;2023-03-03T20:56:40;7.10;99.90
59923;DHT22;45778;51.142;3.732;2023-03-03T21:04:25;6.90;99.90
59923;DHT22;45778;51.142;3.732;2023-03-03T21:06:51;6.80;99.90
59923;DHT22;45778;51.142;3.732;2023-03-03T21:09:29;6.80;99.90
59923;DHT22;45778;51.142;3.732;2023-03-03T21:11:56;6.70;99.90
59923;DHT22;45778;51.142;3.732;2023-03-03T21:14:25;6.80;99.90
59923;DHT22;45778;51.142;3.732;2023-03-03T21:16:53;6.70;99.90
59923;DHT22;45778;51.142;3.732;2023-03-03T21:19:33;6.70;99.90
59923;DHT22;45778;51.142;3.732;2023-03-03T21:22:00;6.90;99.90
59923;DHT22;45778;51.142;3.732;2023-03-03T21:24:49;6.80;99.90
59923;DHT22;45778;51.142;3.732;2023-03-03T21:27:29;6.90;99.90
59923;DHT22;45778;51.142;3.732;2023-03-03T21:32:53;6.80;99.90
59923;DHT22;45778;51.142;3.732;2023-03-03T21:35:20;6.90;99.90
59923;DHT22;45778;51.142;3.732;2023-03-03T21:37:51;6.90;99.90
59923;DHT22;45778;51.142;3.732;2023-03-03T21:40:26;7.10;99.90
59923;DHT22;45778;51.142;3.732;2023-03-03T21:42:54;7.00;99.90
59923;DHT22;45778;51.142;3.732;2023-03-03T21:45:20;7.00;99.90
59923;DHT22;45778;51.142;3.732;2023-03-03T21:47:47;6.90;99.90
59923;DHT22;45778;51.142;3.732;2023-03-03T21:50:13;6.90;99.90
59923;DHT22;45778;51.142;3.732;2023-03-03T21:52:39;6.80;99.90
59923;DHT22;45778;51.142;3.732;2023-03-03T21:55:05;7.00;99.90
59923;DHT22;45778;51.142;3.732;2023-03-03T21:57:31;7.00;99.90
59923;DHT22;45778;51.142;3.732;2023-03-03T21:59:56;7.10;99.90
59923;DHT22;45778;51.142;3.732;2023-03-03T22:02:22;7.10;99.90
59923;DHT22;45778;51.142;3.732;2023-03-03T22:04:48;6.90;99.90
59923;DHT22;45778;51.142;3.732;2023-03-03T22:07:14;7.10;99.90
59923;DHT22;45778;51.142;3.732;2023-03-03T22:09:39;7.00;99.90
59923;DHT22;45778;51.142;3.732;2023-03-03T22:12:05;6.90;99.90
59923;DHT22;45778;51.142;3.732;2023-03-03T22:14:31;6.80;99.90
59923;DHT22;45778;51.142;3.732;2023-03-03T22:16:57;6.90;99.90
59923;DHT22;45778;51.142;3.732;2023-03-03T22:19:23;7.00;99.90
59923;DHT22;45778;51.142;3.732;2023-03-03T22:21:49;6.90;99.90
59923;DHT22;45778;51.142;3.732;2023-03-03T22:24:16;7.00;99.90
59923;DHT22;45778;51.142;3.732;2023-03-03T22:26:41;6.80;99.90
59923;DHT22;45778;51.142;3.732;2023-03-03T22:29:08;6.70;99.90
59923;DHT22;45778;51.142;3.732;2023-03-03T22:31:35;6.70;99.90
59923;DHT22;45778;51.142;3.732;2023-03-03T22:34:01;6.80;99.90
59923;DHT22;45778;51.142;3.732;2023-03-03T22:36:27;6.90;99.90
59923;DHT22;45778;51.142;3.732;2023-03-03T22:38:52;6.90;99.90
59923;DHT22;45778;51.142;3.732;2023-03-03T22:41:18;6.90;99.90
59923;DHT22;45778;51.142;3.732;2023-03-03T22:43:44;7.00;99.90
59923;DHT22;45778;51.142;3.732;2023-03-03T22:46:10;7.00;99.90
59923;DHT22;45778;51.142;3.732;2023-03-03T22:48:37;7.10;99.90
59923;DHT22;45778;51.142;3.732;2023-03-03T22:51:03;7.10;99.90
59923;DHT22;45778;51.142;3.732;2023-03-03T22:53:29;7.00;99.90
59923;DHT22;45778;51.142;3.732;2023-03-03T22:55:54;7.00;99.90
59923;DHT22;45778;51.142;3.732;2023-03-03T22:58:20;7.10;99.90
59923;DHT22;45778;51.142;3.732;2023-03-03T23:00:50;7.20;99.90
59923;DHT22;45778;51.142;3.732;2023-03-03T23:03:16;7.20;99.90
59923;DHT22;45778;51.142;3.732;2023-03-03T23:05:42;7.10;99.90
59923;DHT22;45778;51.142;3.732;2023-03-03T23:08:10;7.10;99.90
59923;DHT22;45778;51.142;3.732;2023-03-03T23:10:36;6.90;99.90
59923;DHT22;45778;51.142;3.732;2023-03-03T23:13:03;6.80;99.90
59923;DHT22;45778;51.142;3.732;2023-03-03T23:15:28;6.80;99.90
59923;DHT22;45778;51.142;3.732;2023-03-03T23:17:54;7.00;99.90
59923;DHT22;45778;51.142;3.732;2023-03-03T23:20:23;7.10;99.90
59923;DHT22;45778;51.142;3.732;2023-03-03T23:22:49;7.10;99.90